createdAt,value
2023-08-23T00:02:26.525Z,20.90
2023-08-23T00:04:53.062Z,20.90
2023-08-23T00:07:19.473Z,20.87
2023-08-23T00:09:45.827Z,20.84
2023-08-23T00:12:12.371Z,20.79
2023-08-23T00:14:38.852Z,20.76
2023-08-23T00:17:05.307Z,20.77
2023-08-23T00:19:31.770Z,20.70
2023-08-23T00:21:58.154Z,20.71
2023-08-23T00:24:24.939Z,20.72
2023-08-23T00:26:51.337Z,20.71
2023-08-23T00:29:17.722Z,20.69
2023-08-23T00:31:44.114Z,20.68
2023-08-23T00:34:10.473Z,20.65
2023-08-23T00:36:37.094Z,20.62
2023-08-23T00:39:03.513Z,20.60
2023-08-23T00:41:29.899Z,20.61
2023-08-23T00:43:56.453Z,20.60
2023-08-23T00:46:22.994Z,20.58
2023-08-23T00:48:50.594Z,20.54
2023-08-23T00:51:18.547Z,20.59
2023-08-23T00:53:46.037Z,20.54
2023-08-23T00:56:13.004Z,20.50
2023-08-23T00:58:39.664Z,20.42
2023-08-23T01:01:06.150Z,20.44
2023-08-23T01:03:33.477Z,20.35
2023-08-23T01:06:37.385Z,20.34
2023-08-23T01:09:15.389Z,20.20
2023-08-23T01:11:50.676Z,20.22
2023-08-23T01:14:23.018Z,20.18
2023-08-23T01:16:50.488Z,20.17
2023-08-23T01:19:41.963Z,20.06
2023-08-23T01:22:11.765Z,20.04
2023-08-23T01:24:38.574Z,19.94
2023-08-23T01:27:05.364Z,19.92
2023-08-23T01:29:31.784Z,19.96
2023-08-23T01:32:07.249Z,19.90
2023-08-23T01:34:38.201Z,19.85
2023-08-23T01:37:06.905Z,19.84
2023-08-23T01:39:34.240Z,19.83
2023-08-23T01:42:01.733Z,19.85
2023-08-23T01:44:28.130Z,19.81
2023-08-23T01:46:54.616Z,19.81
2023-08-23T01:49:21.033Z,19.78
2023-08-23T01:51:47.369Z,19.80
2023-08-23T01:54:13.786Z,19.80
2023-08-23T01:56:40.127Z,19.72
2023-08-23T01:59:06.484Z,19.71
2023-08-23T02:01:33.562Z,19.73
2023-08-23T02:03:59.977Z,19.71
2023-08-23T02:06:26.452Z,19.64
2023-08-23T02:08:52.907Z,19.64
2023-08-23T02:11:19.390Z,19.64
2023-08-23T02:13:45.746Z,19.60
2023-08-23T02:16:12.197Z,19.65
2023-08-23T02:18:38.790Z,19.58
2023-08-23T02:21:05.220Z,19.62
2023-08-23T02:23:31.646Z,19.63
2023-08-23T02:25:58.102Z,19.53
2023-08-23T02:28:24.490Z,19.52
2023-08-23T02:30:50.944Z,19.43
2023-08-23T02:33:19.145Z,19.38
2023-08-23T02:35:47.798Z,19.42
2023-08-23T02:38:14.494Z,19.39
2023-08-23T02:40:43.233Z,19.36
2023-08-23T02:43:10.034Z,19.29
2023-08-23T02:45:40.403Z,19.32
2023-08-23T02:48:09.366Z,19.27
2023-08-23T02:50:35.847Z,19.19
2023-08-23T02:53:02.775Z,19.19
2023-08-23T02:55:29.219Z,19.11
2023-08-23T02:57:55.618Z,19.10
2023-08-23T03:00:22.171Z,19.02
2023-08-23T03:02:48.695Z,19.01
2023-08-23T03:05:15.126Z,19.00
2023-08-23T03:07:41.516Z,19.02
2023-08-23T03:10:08.399Z,18.96
2023-08-23T03:12:34.730Z,18.94
2023-08-23T03:15:01.153Z,18.95
2023-08-23T03:17:27.672Z,18.88
2023-08-23T03:19:54.407Z,18.90
2023-08-23T03:22:20.778Z,18.85
2023-08-23T03:24:47.187Z,18.87
2023-08-23T03:27:13.652Z,18.82
2023-08-23T03:29:40.078Z,18.78
2023-08-23T03:32:06.492Z,18.83
2023-08-23T03:34:32.927Z,18.83
2023-08-23T03:37:01.129Z,18.75
2023-08-23T03:39:27.489Z,18.68
2023-08-23T03:41:53.930Z,18.65
2023-08-23T03:44:20.348Z,18.63
2023-08-23T03:46:46.752Z,18.62
2023-08-23T03:49:13.196Z,18.57
2023-08-23T03:51:39.620Z,18.61
2023-08-23T03:54:06.012Z,18.64
2023-08-23T03:56:32.426Z,18.56
2023-08-23T03:58:59.725Z,18.60
2023-08-23T04:01:26.296Z,18.58
2023-08-23T04:03:52.793Z,18.58
2023-08-23T04:06:19.273Z,18.55
2023-08-23T04:08:45.686Z,18.52
2023-08-23T04:11:12.065Z,18.48
2023-08-23T04:13:38.751Z,18.47
2023-08-23T04:16:05.218Z,18.40
2023-08-23T04:18:31.584Z,18.37
2023-08-23T04:21:01.854Z,18.32
2023-08-23T04:23:28.901Z,18.36
2023-08-23T04:25:55.369Z,18.22
2023-08-23T04:28:23.372Z,18.21
2023-08-23T04:30:49.777Z,18.23
2023-08-23T04:33:16.224Z,18.23
2023-08-23T04:35:42.636Z,18.19
2023-08-23T04:38:13.002Z,18.20
2023-08-23T04:40:39.407Z,18.11
2023-08-23T04:43:05.820Z,18.11
2023-08-23T04:45:32.273Z,18.10
2023-08-23T04:47:58.768Z,18.07
2023-08-23T04:50:25.170Z,18.07
2023-08-23T04:52:51.590Z,18.07
2023-08-23T04:55:18.038Z,18.04
2023-08-23T04:57:44.484Z,18.02
2023-08-23T05:00:11.508Z,18.07
2023-08-23T05:02:37.924Z,18.02
2023-08-23T05:05:04.803Z,18.08
2023-08-23T05:07:31.184Z,18.12
2023-08-23T05:09:57.544Z,18.13
2023-08-23T05:12:23.943Z,18.15
2023-08-23T05:14:50.297Z,18.19
2023-08-23T05:17:16.743Z,18.19
2023-08-23T05:19:43.093Z,18.24
2023-08-23T05:22:11.307Z,18.28
2023-08-23T05:24:37.687Z,18.28
2023-08-23T05:27:04.216Z,18.36
2023-08-23T05:29:30.656Z,18.37
2023-08-23T05:31:57.059Z,18.40
2023-08-23T05:34:23.506Z,18.44
2023-08-23T05:36:49.969Z,18.52
2023-08-23T05:39:16.384Z,18.57
2023-08-23T05:41:42.726Z,18.70
2023-08-23T05:44:09.056Z,18.76
2023-08-23T05:46:35.447Z,18.81
2023-08-23T05:49:01.891Z,18.88
2023-08-23T05:51:28.236Z,18.95
2023-08-23T05:53:55.022Z,19.03
2023-08-23T05:56:21.415Z,19.14
2023-08-23T05:58:47.762Z,19.26
2023-08-23T06:01:14.217Z,19.35
2023-08-23T06:03:40.794Z,19.43
2023-08-23T06:06:07.196Z,19.50
2023-08-23T06:08:33.636Z,19.61
2023-08-23T06:11:00.052Z,19.71
2023-08-23T06:13:26.500Z,19.76
2023-08-23T06:15:52.884Z,19.83
2023-08-23T06:18:19.342Z,19.90
2023-08-23T06:20:46.610Z,19.99
2023-08-23T06:23:13.292Z,20.10
2023-08-23T06:25:40.001Z,20.23
2023-08-23T06:28:06.670Z,20.28
2023-08-23T06:30:33.078Z,20.33
2023-08-23T06:32:59.562Z,20.33
2023-08-23T06:35:27.265Z,20.41
2023-08-23T06:37:53.652Z,20.58
2023-08-23T06:40:20.265Z,20.64
2023-08-23T06:42:46.725Z,20.79
2023-08-23T06:45:13.134Z,20.99
2023-08-23T06:47:39.772Z,21.03
2023-08-23T06:50:11.887Z,21.10
2023-08-23T06:52:39.459Z,21.19
2023-08-23T06:55:07.169Z,21.26
2023-08-23T06:57:33.574Z,21.36
2023-08-23T07:00:00.389Z,21.49
2023-08-23T07:02:27.310Z,21.54
2023-08-23T07:07:46.009Z,21.75
2023-08-23T07:10:26.746Z,21.77
2023-08-23T07:12:54.713Z,21.92
2023-08-23T07:15:21.725Z,22.00
2023-08-23T07:17:50.105Z,22.03
2023-08-23T07:20:17.285Z,22.28
2023-08-23T07:22:43.683Z,22.37
2023-08-23T07:25:10.051Z,22.28
2023-08-23T07:27:37.887Z,22.26
2023-08-23T07:30:06.678Z,22.34
2023-08-23T07:32:33.580Z,22.51
2023-08-23T07:35:03.175Z,22.69
2023-08-23T07:37:29.917Z,22.77
2023-08-23T07:39:56.918Z,23.05
2023-08-23T07:42:25.156Z,23.02
2023-08-23T07:44:52.728Z,23.19
2023-08-23T07:47:19.228Z,23.26
2023-08-23T07:49:45.927Z,23.16
2023-08-23T07:52:12.350Z,23.27
2023-08-23T07:54:38.702Z,23.44
2023-08-23T07:57:05.205Z,23.54
2023-08-23T07:59:31.669Z,23.62
2023-08-23T08:01:58.173Z,23.60
2023-08-23T08:04:24.590Z,23.52
2023-08-23T08:06:50.916Z,23.61
2023-08-23T08:09:17.294Z,23.85
2023-08-23T08:11:43.721Z,23.81
2023-08-23T08:14:10.166Z,23.90
2023-08-23T08:16:36.625Z,24.24
2023-08-23T08:19:03.118Z,23.99
2023-08-23T08:21:29.458Z,24.20
2023-08-23T08:23:56.597Z,24.39
2023-08-23T08:26:23.596Z,24.65
2023-08-23T08:28:50.092Z,24.61
2023-08-23T08:31:16.549Z,24.88
2023-08-23T08:33:43.403Z,24.90
2023-08-23T08:36:11.833Z,24.84
2023-08-23T08:38:38.627Z,24.73
2023-08-23T08:41:05.489Z,24.86
2023-08-23T08:43:32.966Z,24.93
2023-08-23T08:45:59.449Z,25.07
2023-08-23T08:48:25.876Z,25.08
2023-08-23T08:50:54.364Z,25.31
2023-08-23T08:53:29.566Z,25.43
2023-08-23T08:55:56.224Z,25.42
2023-08-23T08:58:24.842Z,25.62
2023-08-23T09:00:54.293Z,25.88
2023-08-23T09:03:21.251Z,26.05
2023-08-23T09:05:49.473Z,25.85
2023-08-23T09:08:16.429Z,26.07
2023-08-23T09:10:42.864Z,26.24
2023-08-23T09:13:09.311Z,26.07
2023-08-23T09:15:35.948Z,26.33
2023-08-23T09:18:03.469Z,26.42
2023-08-23T09:20:29.970Z,26.49
2023-08-23T09:22:56.711Z,26.27
2023-08-23T09:25:24.677Z,26.32
2023-08-23T09:27:54.056Z,26.62
2023-08-23T09:30:21.426Z,26.85
2023-08-23T09:32:48.074Z,27.23
2023-08-23T09:35:18.641Z,27.05
2023-08-23T09:37:49.979Z,27.20
2023-08-23T09:40:20.854Z,27.03
2023-08-23T09:42:47.779Z,27.31
2023-08-23T09:45:22.595Z,27.08
2023-08-23T09:47:56.880Z,27.40
2023-08-23T09:50:25.318Z,27.79
2023-08-23T09:52:57.696Z,27.75
2023-08-23T09:55:26.680Z,27.67
2023-08-23T09:57:56.486Z,27.77
2023-08-23T10:00:23.937Z,27.92
2023-08-23T10:02:50.620Z,28.26
2023-08-23T10:05:19.294Z,28.52
2023-08-23T10:07:46.411Z,28.30
2023-08-23T10:10:13.476Z,28.72
2023-08-23T10:12:46.511Z,28.49
2023-08-23T10:15:16.766Z,28.35
2023-08-23T10:17:45.797Z,28.64
2023-08-23T10:20:12.826Z,28.43
2023-08-23T10:22:41.474Z,28.31
2023-08-23T10:25:20.878Z,28.23
2023-08-23T10:27:49.607Z,28.62
2023-08-23T10:30:40.027Z,28.69
2023-08-23T10:33:10.879Z,28.65
2023-08-23T10:35:38.667Z,29.12
2023-08-23T10:38:10.069Z,28.86
2023-08-23T10:40:43.308Z,28.91
2023-08-23T10:43:11.246Z,28.98
2023-08-23T10:45:50.140Z,29.15
2023-08-23T10:48:19.073Z,29.22
2023-08-23T10:50:47.276Z,29.22
2023-08-23T10:53:16.226Z,29.26
2023-08-23T10:55:42.889Z,29.58
2023-08-23T10:58:09.352Z,29.93
2023-08-23T11:00:36.880Z,30.04
2023-08-23T11:03:05.621Z,29.95
2023-08-23T11:05:32.567Z,30.07
2023-08-23T11:07:59.178Z,29.91
2023-08-23T11:10:26.670Z,30.15
2023-08-23T11:12:53.212Z,30.11
2023-08-23T11:15:21.267Z,29.77
2023-08-23T11:17:48.400Z,29.60
2023-08-23T11:20:16.465Z,29.91
2023-08-23T11:22:43.888Z,30.17
2023-08-23T11:25:10.271Z,30.21
2023-08-23T11:27:36.690Z,30.14
2023-08-23T11:30:03.804Z,29.92
2023-08-23T11:32:31.068Z,30.06
2023-08-23T11:34:58.989Z,30.27
2023-08-23T11:37:25.646Z,30.42
2023-08-23T11:39:59.505Z,30.54
2023-08-23T11:42:26.777Z,30.37
2023-08-23T11:44:57.049Z,30.43
2023-08-23T11:47:27.472Z,30.52
2023-08-23T11:49:54.541Z,30.32
2023-08-23T11:52:21.104Z,30.08
2023-08-23T11:54:47.724Z,30.30
2023-08-23T11:57:20.931Z,30.31
2023-08-23T11:59:48.189Z,30.63
2023-08-23T12:02:14.906Z,30.86
2023-08-23T12:04:45.512Z,30.79
2023-08-23T12:07:14.025Z,30.86
2023-08-23T12:09:40.987Z,30.98
2023-08-23T12:12:07.874Z,30.91
2023-08-23T12:14:34.852Z,31.20
2023-08-23T12:17:01.524Z,31.23
2023-08-23T12:19:32.053Z,31.43
2023-08-23T12:21:58.976Z,31.33
2023-08-23T12:24:25.632Z,31.38
2023-08-23T12:26:52.340Z,31.66
2023-08-23T12:29:18.999Z,31.52
2023-08-23T12:31:45.546Z,31.58
2023-08-23T12:34:12.186Z,31.82
2023-08-23T12:36:38.891Z,31.66
2023-08-23T12:39:06.372Z,31.30
2023-08-23T12:41:33.194Z,31.44
2023-08-23T12:44:01.573Z,31.50
2023-08-23T12:46:30.861Z,31.36
2023-08-23T12:48:57.540Z,31.17
2023-08-23T12:51:25.901Z,31.64
2023-08-23T12:53:52.335Z,31.46
2023-08-23T12:56:18.912Z,31.35
2023-08-23T12:58:47.660Z,31.37
2023-08-23T13:01:14.145Z,31.75
2023-08-23T13:03:40.650Z,32.07
2023-08-23T13:06:07.147Z,32.08
2023-08-23T13:08:33.629Z,31.25
2023-08-23T13:11:00.288Z,31.43
2023-08-23T13:13:28.244Z,31.55
2023-08-23T13:15:54.640Z,31.48
2023-08-23T13:18:21.148Z,31.69
2023-08-23T13:20:47.563Z,31.90
2023-08-23T13:23:14.202Z,31.95
2023-08-23T13:25:40.557Z,31.81
2023-08-23T13:28:07.101Z,31.73
2023-08-23T13:30:33.533Z,31.72
2023-08-23T13:32:59.949Z,31.68
2023-08-23T13:35:26.339Z,32.19
2023-08-23T13:37:52.821Z,32.08
2023-08-23T13:40:19.434Z,31.84
2023-08-23T13:42:45.884Z,31.83
2023-08-23T13:45:12.314Z,31.64
2023-08-23T13:47:39.242Z,31.54
2023-08-23T13:50:07.078Z,31.05
2023-08-23T13:52:33.563Z,31.23
2023-08-23T13:55:00.015Z,31.15
2023-08-23T13:57:26.537Z,31.36
2023-08-23T13:59:52.910Z,31.21
2023-08-23T14:02:19.352Z,31.19
2023-08-23T14:04:45.797Z,31.44
2023-08-23T14:07:12.304Z,31.40
2023-08-23T14:09:38.693Z,31.53
2023-08-23T14:12:06.633Z,31.41
2023-08-23T14:14:33.082Z,31.47
2023-08-23T14:16:59.632Z,31.58
2023-08-23T14:19:29.790Z,31.67
2023-08-23T14:21:56.213Z,31.52
2023-08-23T14:24:22.657Z,31.24
2023-08-23T14:26:49.244Z,31.26
2023-08-23T14:29:16.181Z,31.42
2023-08-23T14:31:42.811Z,31.35
2023-08-23T14:34:09.275Z,31.73
2023-08-23T14:36:35.624Z,31.89
2023-08-23T14:39:02.458Z,32.07
2023-08-23T14:41:28.809Z,31.98
2023-08-23T14:43:55.731Z,31.99
2023-08-23T14:46:22.182Z,31.63
2023-08-23T14:48:48.638Z,31.72
2023-08-23T14:51:15.102Z,31.78
2023-08-23T14:53:43.304Z,31.49
2023-08-23T14:56:09.768Z,31.77
2023-08-23T14:58:36.198Z,31.72
2023-08-23T15:01:02.620Z,31.80
2023-08-23T15:03:29.105Z,31.66
2023-08-23T15:05:56.295Z,31.52
2023-08-23T15:08:22.785Z,31.43
2023-08-23T15:10:49.271Z,31.42
2023-08-23T15:13:15.686Z,31.34
2023-08-23T15:15:42.197Z,31.47
2023-08-23T15:18:08.789Z,31.48
2023-08-23T15:20:35.352Z,31.23
2023-08-23T15:23:01.906Z,31.47
2023-08-23T15:25:28.322Z,31.55
2023-08-23T15:27:55.038Z,31.38
2023-08-23T15:30:21.593Z,31.28
2023-08-23T15:32:48.113Z,31.35
2023-08-23T15:35:14.558Z,31.10
2023-08-23T15:37:41.011Z,31.25
2023-08-23T15:40:10.372Z,31.35
2023-08-23T15:42:37.481Z,31.31
2023-08-23T15:45:05.324Z,30.99
2023-08-23T15:47:31.716Z,31.13
2023-08-23T15:49:58.145Z,31.37
2023-08-23T15:52:24.552Z,31.43
2023-08-23T15:54:51.802Z,31.27
2023-08-23T15:57:19.965Z,31.12
2023-08-23T15:59:46.924Z,31.25
2023-08-23T16:02:13.300Z,31.07
2023-08-23T16:04:41.485Z,31.17
2023-08-23T16:07:09.200Z,31.10
2023-08-23T16:09:35.649Z,31.05
2023-08-23T16:12:02.092Z,31.35
2023-08-23T16:14:28.519Z,31.22
2023-08-23T16:16:54.953Z,31.18
2023-08-23T16:19:21.406Z,31.02
2023-08-23T16:21:49.348Z,30.95
2023-08-23T16:24:15.742Z,30.92
2023-08-23T16:26:42.198Z,31.00
2023-08-23T16:29:08.598Z,30.72
2023-08-23T16:31:35.067Z,30.58
2023-08-23T16:34:01.513Z,30.44
2023-08-23T16:36:27.963Z,30.38
2023-08-23T16:38:54.421Z,30.35
2023-08-23T16:41:20.950Z,30.27
2023-08-23T16:43:47.408Z,30.23
2023-08-23T16:46:14.338Z,30.25
2023-08-23T16:48:40.771Z,30.14
2023-08-23T16:51:09.177Z,30.02
2023-08-23T16:53:35.546Z,30.13
2023-08-23T16:56:02.042Z,30.10
2023-08-23T16:58:31.234Z,30.16
2023-08-23T17:00:58.227Z,29.97
2023-08-23T17:03:24.726Z,29.96
2023-08-23T17:05:51.336Z,29.97
2023-08-23T17:08:17.750Z,30.08
2023-08-23T17:10:45.251Z,29.97
2023-08-23T17:13:11.713Z,29.95
2023-08-23T17:15:38.137Z,29.83
2023-08-23T17:18:05.755Z,29.71
2023-08-23T17:20:32.321Z,29.72
2023-08-23T17:22:59.609Z,29.54
2023-08-23T17:25:26.234Z,29.48
2023-08-23T17:27:52.694Z,29.68
2023-08-23T17:30:19.100Z,29.65
2023-08-23T17:32:45.493Z,29.50
2023-08-23T17:35:13.050Z,29.23
2023-08-23T17:37:39.467Z,28.86
2023-08-23T17:40:06.495Z,28.58
2023-08-23T17:42:32.878Z,28.49
2023-08-23T17:45:00.310Z,28.49
2023-08-23T17:47:27.219Z,28.44
2023-08-23T17:49:53.703Z,28.45
2023-08-23T17:52:20.083Z,28.41
2023-08-23T17:54:46.443Z,28.33
2023-08-23T17:57:12.898Z,28.23
2023-08-23T17:59:39.234Z,28.06
2023-08-23T18:02:05.670Z,27.99
2023-08-23T18:04:33.009Z,27.80
2023-08-23T18:06:59.405Z,27.65
2023-08-23T18:09:25.775Z,27.65
2023-08-23T18:11:52.191Z,27.63
2023-08-23T18:14:18.598Z,27.48
2023-08-23T18:16:45.046Z,27.46
2023-08-23T18:19:11.505Z,27.38
2023-08-23T18:21:37.927Z,27.42
2023-08-23T18:24:04.317Z,27.38
2023-08-23T18:26:32.276Z,27.06
2023-08-23T18:28:58.695Z,26.91
2023-08-23T18:31:25.671Z,26.69
2023-08-23T18:33:52.122Z,26.59
2023-08-23T18:36:18.825Z,26.47
2023-08-23T18:38:45.357Z,26.51
2023-08-23T18:41:11.780Z,26.47
2023-08-23T18:43:38.226Z,26.33
2023-08-23T18:46:04.701Z,26.21
2023-08-23T18:48:31.102Z,26.06
2023-08-23T18:51:02.884Z,25.99
2023-08-23T18:53:30.048Z,25.79
2023-08-23T18:55:56.493Z,25.70
2023-08-23T18:58:22.961Z,25.66
2023-08-23T19:00:49.487Z,25.60
2023-08-23T19:03:18.127Z,25.45
2023-08-23T19:05:45.161Z,25.28
2023-08-23T19:08:11.997Z,25.10
2023-08-23T19:10:39.870Z,25.14
2023-08-23T19:13:06.399Z,25.00
2023-08-23T19:15:34.195Z,24.84
2023-08-23T19:18:00.758Z,24.76
2023-08-23T19:20:27.282Z,24.70
2023-08-23T19:22:53.641Z,24.61
2023-08-23T19:25:19.964Z,24.50
2023-08-23T19:27:46.425Z,24.45
2023-08-23T19:30:12.953Z,24.34
2023-08-23T19:32:39.519Z,24.26
2023-08-23T19:35:06.076Z,24.21
2023-08-23T19:37:32.564Z,24.09
2023-08-23T19:39:58.957Z,24.03
2023-08-23T19:42:25.365Z,23.97
2023-08-23T19:44:51.776Z,23.91
2023-08-23T19:47:18.251Z,23.86
2023-08-23T19:49:44.732Z,23.76
2023-08-23T19:52:11.191Z,23.71
2023-08-23T19:54:39.290Z,23.67
2023-08-23T19:57:06.685Z,23.61
2023-08-23T19:59:33.210Z,23.43
2023-08-23T20:01:59.574Z,23.46
2023-08-23T20:04:25.977Z,23.31
2023-08-23T20:06:52.375Z,23.29
2023-08-23T20:09:18.914Z,23.11
2023-08-23T20:11:46.146Z,23.06
2023-08-23T20:14:12.708Z,23.07
2023-08-23T20:16:39.065Z,23.04
2023-08-23T20:19:05.471Z,22.94
2023-08-23T20:21:31.896Z,22.87
2023-08-23T20:23:58.310Z,22.77
2023-08-23T20:26:24.742Z,22.71
2023-08-23T20:28:51.427Z,22.72
2023-08-23T20:31:17.912Z,22.65
2023-08-23T20:33:44.536Z,22.61
2023-08-23T20:36:10.996Z,22.54
2023-08-23T20:38:37.801Z,22.48
2023-08-23T20:41:08.190Z,22.41
2023-08-23T20:43:34.728Z,22.36
2023-08-23T20:46:02.796Z,22.24
2023-08-23T20:48:29.792Z,22.17
2023-08-23T20:50:56.262Z,22.10
2023-08-23T20:53:22.701Z,22.02
2023-08-23T20:55:51.255Z,21.97
2023-08-23T20:58:18.768Z,21.88
2023-08-23T21:00:48.763Z,21.81
2023-08-23T21:03:15.247Z,21.78
2023-08-23T21:05:43.864Z,21.74
2023-08-23T21:08:10.311Z,21.64
2023-08-23T21:10:42.900Z,21.63
2023-08-23T21:13:11.906Z,21.56
2023-08-23T21:15:48.469Z,21.57
2023-08-23T21:18:16.004Z,21.59
2023-08-23T21:20:42.879Z,21.57
2023-08-23T21:23:11.610Z,21.52
2023-08-23T21:25:38.016Z,21.52
2023-08-23T21:28:04.693Z,21.47
2023-08-23T21:30:31.116Z,21.42
2023-08-23T21:32:58.017Z,21.40
2023-08-23T21:35:24.825Z,21.40
2023-08-23T21:37:51.391Z,21.33
2023-08-23T21:40:18.175Z,21.35
2023-08-23T21:42:44.636Z,21.31
2023-08-23T21:45:11.366Z,21.23
2023-08-23T21:47:37.923Z,21.16
2023-08-23T21:50:04.852Z,21.15
2023-08-23T21:52:31.272Z,21.13
2023-08-23T21:54:57.588Z,21.08
2023-08-23T21:57:24.057Z,21.12
2023-08-23T21:59:50.504Z,21.07
2023-08-23T22:02:16.916Z,20.97
2023-08-23T22:04:43.342Z,20.91
2023-08-23T22:07:10.240Z,20.94
2023-08-23T22:09:37.171Z,20.84
2023-08-23T22:12:03.774Z,20.74
2023-08-23T22:14:30.222Z,20.73
2023-08-23T22:16:56.850Z,20.63
2023-08-23T22:19:23.602Z,20.56
2023-08-23T22:21:49.982Z,20.52
2023-08-23T22:24:16.507Z,20.48
2023-08-23T22:26:42.891Z,20.45
2023-08-23T22:29:09.417Z,20.40
2023-08-23T22:31:35.834Z,20.37
2023-08-23T22:34:02.353Z,20.35
2023-08-23T22:36:28.742Z,20.38
2023-08-23T22:38:55.109Z,20.39
2023-08-23T22:41:21.610Z,20.39
2023-08-23T22:43:47.983Z,20.39
2023-08-23T22:46:25.926Z,20.48
2023-08-23T22:48:58.042Z,20.41
2023-08-23T22:51:24.828Z,20.41
2023-08-23T22:53:52.100Z,20.35
2023-08-23T22:56:18.569Z,20.25
2023-08-23T22:58:45.651Z,20.16
2023-08-23T23:01:12.163Z,20.13
2023-08-23T23:03:38.994Z,20.12
2023-08-23T23:06:08.986Z,20.07
2023-08-23T23:08:35.862Z,20.07
2023-08-23T23:11:04.870Z,19.99
2023-08-23T23:13:32.052Z,19.91
2023-08-23T23:16:07.337Z,19.87
2023-08-23T23:18:37.071Z,19.77
2023-08-23T23:21:05.042Z,19.77
2023-08-23T23:23:31.383Z,19.76
2023-08-23T23:25:57.758Z,19.71
2023-08-23T23:28:24.152Z,19.70
2023-08-23T23:30:50.534Z,19.74
2023-08-23T23:33:16.969Z,19.73
2023-08-23T23:35:44.287Z,19.75
2023-08-23T23:38:10.827Z,19.74
2023-08-23T23:40:40.572Z,19.72
2023-08-23T23:43:07.146Z,19.69
2023-08-23T23:45:35.337Z,19.69
2023-08-23T23:48:02.664Z,19.66
2023-08-23T23:50:29.751Z,19.65
2023-08-23T23:52:56.129Z,19.63
2023-08-23T23:55:22.647Z,19.56
2023-08-23T23:57:49.229Z,19.53
